Time;durP1;ratioP1;P1;durP2;ratioP2;P2;SDS_P1;SDS_P2;PMS_P1;PMS_P2;Temp;Humidity;BMP_temperature;BMP_pressure;BME280_temperature;BME280_humidity;BME280_pressure;Samples;Min_cycle;Max_cycle;Signal;HPM_P1;HPM_P2
2023/09/13 00:44:02;;;;;;;2.60;1.90;;;;;;;;;;13008001;22;20664;-83
2023/09/13 00:49:06;;;;;;;1.55;1.42;;;;;;;;;;13020922;22;20027;-83
2023/09/13 00:54:10;;;;;;;4.80;2.65;;;;;;;;;;13001429;22;20027;-83
2023/09/13 00:59:15;;;;;;;3.25;1.85;;;;;;;;;;13002446;22;20019;-84
2023/09/13 01:04:18;;;;;;;4.03;2.20;;;;;;;;;;13002011;22;20106;-84
2023/09/13 01:09:22;;;;;;;2.45;1.38;;;;;;;;;;13004474;22;20031;-85
2023/09/13 01:14:27;;;;;;;1.45;1.23;;;;;;;;;;13006958;22;20011;-85
2023/09/13 01:19:47;;;;;;;1.17;1.08;;;;;;;;;;13002644;22;20042;-84
2023/09/13 01:25:08;;;;;;;2.08;1.30;;;;;;;;;;13002702;22;20038;-85
2023/09/13 01:30:14;;;;;;;2.60;1.60;;;;;;;;;;13028964;22;20027;-85
2023/09/13 01:35:18;;;;;;;2.67;1.50;;;;;;;;;;13050642;22;20015;-85
2023/09/13 01:40:23;;;;;;;1.20;1.10;;;;;;;;;;13002483;22;20449;-84
2023/09/13 01:45:28;;;;;;;1.38;1.20;;;;;;;;;;13001896;22;20093;-84
2023/09/13 01:50:33;;;;;;;2.28;1.08;;;;;;;;;;13005537;22;20024;-84
2023/09/13 01:55:37;;;;;;;1.30;1.08;;;;;;;;;;13003373;22;20499;-83
2023/09/13 02:00:41;;;;;;;2.10;1.30;;;;;;;;;;13003249;22;20030;-83
2023/09/13 02:05:45;;;;;;;1.10;1.00;;;;;;;;;;13007624;22;20053;-83
2023/09/13 02:10:49;;;;;;;1.73;1.23;;;;;;;;;;13005063;22;20356;-83
2023/09/13 02:15:54;;;;;;;2.15;1.90;;;;;;;;;;13003423;22;20313;-84
2023/09/13 02:20:57;;;;;;;1.25;1.13;;;;;;;;;;13006234;22;20347;-84
2023/09/13 02:26:01;;;;;;;1.30;1.20;;;;;;;;;;13004380;22;20569;-84
2023/09/13 02:31:06;;;;;;;0.80;0.80;;;;;;;;;;13003388;22;20042;-83
2023/09/13 02:36:09;;;;;;;1.10;0.70;;;;;;;;;;13003240;22;20033;-84
2023/09/13 02:41:12;;;;;;;1.02;0.93;;;;;;;;;;13049124;22;20030;-84
2023/09/13 02:46:17;;;;;;;1.88;0.90;;;;;;;;;;13002840;22;20088;-83
2023/09/13 02:51:20;;;;;;;2.67;1.58;;;;;;;;;;13004032;22;20033;-83
2023/09/13 02:56:24;;;;;;;2.15;1.60;;;;;;;;;;13003262;22;20027;-84
2023/09/13 03:01:28;;;;;;;2.45;2.13;;;;;;;;;;13003932;22;20096;-84
2023/09/13 03:06:32;;;;;;;1.92;1.50;;;;;;;;;;13002354;22;20023;-83
2023/09/13 03:11:37;;;;;;;2.50;1.60;;;;;;;;;;13003836;22;20023;-83
2023/09/13 03:16:42;;;;;;;2.50;2.00;;;;;;;;;;13002901;22;20031;-83
2023/09/13 03:21:45;;;;;;;1.90;1.65;;;;;;;;;;13046454;22;20098;-83
2023/09/13 03:26:48;;;;;;;1.42;1.33;;;;;;;;;;13003548;22;20027;-83
2023/09/13 03:31:54;;;;;;;1.60;1.40;;;;;;;;;;13004479;22;20023;-83
2023/09/13 03:36:58;;;;;;;1.35;1.25;;;;;;;;;;13003256;22;20019;-83
2023/09/13 03:42:02;;;;;;;3.50;1.90;;;;;;;;;;13003578;22;20338;-82
2023/09/13 03:47:07;;;;;;;1.60;1.50;;;;;;;;;;13002883;22;20476;-83
2023/09/13 03:52:11;;;;;;;1.45;1.35;;;;;;;;;;13004345;22;20329;-83
2023/09/13 03:57:15;;;;;;;2.78;1.60;;;;;;;;;;13003203;22;20598;-82
2023/09/13 04:02:20;;;;;;;2.20;1.35;;;;;;;;;;13004045;22;20612;-83
2023/09/13 04:07:25;;;;;;;1.88;1.40;;;;;;;;;;13001280;22;20027;-82
2023/09/13 04:12:28;;;;;;;1.13;1.02;;;;;;;;;;13002600;22;20664;-82
2023/09/13 04:17:33;;;;;;;1.15;1.05;;;;;;;;;;13002695;22;20027;-82
2023/09/13 04:22:37;;;;;;;1.10;1.00;;;;;;;;;;13002772;22;20023;-83
2023/09/13 04:27:44;;;;;;;1.23;1.13;;;;;;;;;;13000252;22;20027;-83
2023/09/13 04:32:49;;;;;;;1.58;1.40;;;;;;;;;;13001354;22;20027;-82
2023/09/13 04:37:53;;;;;;;1.30;1.17;;;;;;;;;;13002930;22;20345;-83
2023/09/13 04:43:23;;;;;;;1.75;1.40;;;;;;;;;;13002855;22;20106;-83
2023/09/13 04:48:28;;;;;;;2.47;1.40;;;;;;;;;;13001985;22;20027;-86
2023/09/13 04:53:33;;;;;;;1.58;1.20;;;;;;;;;;13000970;22;20529;-83
2023/09/13 04:58:41;;;;;;;1.60;1.20;;;;;;;;;;13005496;22;20023;-82
2023/09/13 05:03:47;;;;;;;2.80;1.27;;;;;;;;;;13006984;22;20023;-83
2023/09/13 05:08:52;;;;;;;1.88;1.42;;;;;;;;;;13004077;22;20704;-83
2023/09/13 05:14:12;;;;;;;1.38;1.27;;;;;;;;;;13006445;22;20635;-82
2023/09/13 05:19:17;;;;;;;2.15;1.27;;;;;;;;;;13036486;22;20601;-82
2023/09/13 05:24:21;;;;;;;;;;;;;;;;;;13009344;22;20081;-82
2023/09/13 05:29:24;;;;;;;1.45;1.10;;;;;;;;;;13008824;22;19914;-87
2023/09/13 05:34:29;;;;;;;1.25;1.15;;;;;;;;;;13011024;22;20352;-83
2023/09/13 05:39:34;;;;;;;2.85;1.40;;;;;;;;;;13009473;22;20356;-83
2023/09/13 05:44:37;;;;;;;1.45;1.30;;;;;;;;;;13012212;22;20047;-83
2023/09/13 05:49:42;;;;;;;2.08;1.20;;;;;;;;;;13037901;22;20110;-83
2023/09/13 05:54:47;;;;;;;1.25;1.15;;;;;;;;;;13008721;22;20019;-83
2023/09/13 05:59:51;;;;;;;2.03;1.30;;;;;;;;;;13037047;22;20027;-82
2023/09/13 06:04:55;;;;;;;2.58;1.67;;;;;;;;;;13008273;22;20047;-82
2023/09/13 06:10:00;;;;;;;1.58;1.35;;;;;;;;;;13035421;22;20564;-82
2023/09/13 06:15:06;;;;;;;2.33;1.60;;;;;;;;;;13036308;22;20055;-83
2023/09/13 06:20:11;;;;;;;2.33;1.73;;;;;;;;;;13036139;22;20034;-83
2023/09/13 06:25:17;;;;;;;1.60;1.40;;;;;;;;;;13035688;22;20023;-83
2023/09/13 06:30:23;;;;;;;2.10;1.50;;;;;;;;;;13007394;22;20084;-83
2023/09/13 06:35:28;;;;;;;2.22;2.00;;;;;;;;;;13053539;22;20404;-82
2023/09/13 06:40:33;;;;;;;4.18;1.80;;;;;;;;;;13007866;22;20813;-83
2023/09/13 06:45:37;;;;;;;1.90;1.42;;;;;;;;;;13006005;22;20090;-83
2023/09/13 06:50:50;;;;;;;2.95;2.15;;;;;;;;;;13054484;22;20451;-83
2023/09/13 06:56:14;;;;;;;2.45;1.95;;;;;;;;;;13034986;22;20033;-83
2023/09/13 07:01:19;;;;;;;2.23;2.03;;;;;;;;;;13006810;22;20110;-83
2023/09/13 07:06:38;;;;;;;4.32;2.42;;;;;;;;;;13031979;22;20019;-83
2023/09/13 07:11:46;;;;;;;2.33;2.05;;;;;;;;;;13006207;22;20084;-82
2023/09/13 07:16:49;;;;;;;3.78;1.90;;;;;;;;;;12992573;22;20038;-82
2023/09/13 07:21:54;;;;;;;3.20;2.35;;;;;;;;;;13006262;22;20027;-83
2023/09/13 07:26:57;;;;;;;3.90;3.38;;;;;;;;;;13004196;22;20015;-84
2023/09/13 07:32:04;;;;;;;8.05;5.70;;;;;;;;;;13047591;22;20266;-83
2023/09/13 07:37:09;;;;;;;5.50;4.63;;;;;;;;;;12985338;22;20026;-83
2023/09/13 07:56:20;;;;;;;6.03;4.82;;;;;;;;;;12992074;22;20004;-87
2023/09/13 08:01:27;;;;;;;3.83;3.42;;;;;;;;;;12948245;22;20023;-88
2023/09/13 08:06:30;;;;;;;7.45;5.63;;;;;;;;;;12945368;22;20070;-87
2023/09/13 08:11:43;;;;;;;4.00;3.50;;;;;;;;;;12930065;22;20147;-87
2023/09/13 08:16:47;;;;;;;4.18;2.95;;;;;;;;;;12946470;22;20095;-87
2023/09/13 08:21:53;;;;;;;3.40;2.83;;;;;;;;;;12873143;23;20034;-88
2023/09/13 08:26:57;;;;;;;;;;;;;;;;;;12910104;23;20103;-88
2023/09/13 08:32:07;;;;;;;5.20;3.95;;;;;;;;;;12912045;23;19922;-86
2023/09/13 08:37:10;;;;;;;3.85;3.03;;;;;;;;;;12910966;23;20020;-87
2023/09/13 08:42:19;;;;;;;4.28;3.00;;;;;;;;;;12888101;23;20104;-88
2023/09/13 08:47:26;;;;;;;2.53;2.33;;;;;;;;;;12912563;23;20078;-88
2023/09/13 08:52:32;;;;;;;1.67;1.58;;;;;;;;;;12912362;23;20051;-87
2023/09/13 08:57:38;;;;;;;1.60;1.50;;;;;;;;;;12881356;23;20024;-87
2023/09/13 09:02:44;;;;;;;1.85;1.48;;;;;;;;;;12868213;23;20098;-88
2023/09/13 09:07:48;;;;;;;;;;;;;;;;;;12883073;23;20016;-87
2023/09/13 09:12:58;;;;;;;2.60;1.73;;;;;;;;;;12908777;23;20249;-88
2023/09/13 09:18:05;;;;;;;1.80;1.33;;;;;;;;;;12885517;23;20023;-88
2023/09/13 09:23:20;;;;;;;2.10;1.67;;;;;;;;;;12884568;23;20032;-88
2023/09/13 09:28:26;;;;;;;1.48;1.30;;;;;;;;;;12883840;23;20050;-89
2023/09/13 09:33:33;;;;;;;2.67;1.65;;;;;;;;;;12883020;23;20056;-88
2023/09/13 09:38:36;;;;;;;2.17;1.98;;;;;;;;;;12914575;23;20032;-88
2023/09/13 09:43:45;;;;;;;2.22;1.80;;;;;;;;;;12869544;23;20093;-88
2023/09/13 09:48:49;;;;;;;1.88;1.75;;;;;;;;;;12881794;23;20128;-88
2023/09/13 09:53:55;;;;;;;2.10;1.90;;;;;;;;;;12882729;23;20082;-89
2023/09/13 09:59:01;;;;;;;3.90;2.10;;;;;;;;;;12882174;23;20020;-88
2023/09/13 10:04:12;;;;;;;3.13;1.92;;;;;;;;;;12881470;23;20099;-89
2023/09/13 10:09:16;;;;;;;3.40;2.40;;;;;;;;;;12869140;23;20330;-88
2023/09/13 10:14:28;;;;;;;2.47;2.03;;;;;;;;;;12881609;23;20079;-89
2023/09/13 10:19:42;;;;;;;;;;;;;;;;;;;;;
2023/09/13 10:24:57;;;;;;;2.17;1.98;;;;;;;;;;12880564;23;20051;-88
2023/09/13 10:30:04;;;;;;;3.58;2.28;;;;;;;;;;12879850;23;20017;-88
2023/09/13 10:35:15;;;;;;;4.75;3.53;;;;;;;;;;12882766;23;20031;-88
2023/09/13 10:40:26;;;;;;;2.42;2.22;;;;;;;;;;12882509;23;20016;-86
2023/09/13 10:45:31;;;;;;;2.78;2.35;;;;;;;;;;12927119;23;20023;-87
2023/09/13 10:50:35;;;;;;;3.87;2.90;;;;;;;;;;12878417;23;20038;-88
2023/09/13 10:55:45;;;;;;;2.75;2.17;;;;;;;;;;12877792;23;20247;-88
2023/09/13 11:00:53;;;;;;;2.83;1.90;;;;;;;;;;12881238;23;20074;-88
2023/09/13 11:06:00;;;;;;;2.08;1.83;;;;;;;;;;12879680;23;20095;-88
2023/09/13 11:11:17;;;;;;;3.75;1.92;;;;;;;;;;12905615;23;20028;-88
2023/09/13 11:16:24;;;;;;;2.80;2.30;;;;;;;;;;12880415;23;20035;-88
2023/09/13 11:21:49;;;;;;;2.20;1.77;;;;;;;;;;12881106;23;20357;-86
2023/09/13 11:26:55;;;;;;;2.10;1.50;;;;;;;;;;12878838;23;20043;-87
2023/09/13 11:32:04;;;;;;;2.53;1.92;;;;;;;;;;12861772;23;20024;-88
2023/09/13 11:37:09;;;;;;;2.90;1.88;;;;;;;;;;12905394;23;20099;-88
2023/09/13 11:42:15;;;;;;;2.33;1.85;;;;;;;;;;12905842;23;20047;-88
2023/09/13 11:47:35;;;;;;;1.70;1.40;;;;;;;;;;12878647;23;20059;-88
2023/09/13 11:53:08;;;;;;;2.63;2.25;;;;;;;;;;12905217;23;20028;-88
2023/09/13 11:58:21;;;;;;;2.00;1.80;;;;;;;;;;12877964;23;20392;-87
2023/09/13 12:03:45;;;;;;;2.95;1.80;;;;;;;;;;12876886;23;20555;-87
2023/09/13 12:08:55;;;;;;;1.85;1.30;;;;;;;;;;12904232;23;20027;-87
2023/09/13 12:14:02;;;;;;;1.23;1.10;;;;;;;;;;12904068;23;20016;-87
2023/09/13 12:19:13;;;;;;;2.53;1.65;;;;;;;;;;12903013;23;20070;-88
2023/09/13 12:24:20;;;;;;;1.33;1.20;;;;;;;;;;12877579;23;20059;-87
2023/09/13 12:29:24;;;;;;;1.33;1.20;;;;;;;;;;12901202;23;20027;-87
2023/09/13 12:34:29;;;;;;;2.05;1.70;;;;;;;;;;12876619;23;20043;-87
2023/09/13 12:39:34;;;;;;;1.23;1.00;;;;;;;;;;12875767;23;20024;-86
2023/09/13 12:44:40;;;;;;;2.17;1.10;;;;;;;;;;12903300;23;20080;-88
2023/09/13 12:49:46;;;;;;;1.42;1.23;;;;;;;;;;12901990;23;20051;-88
2023/09/13 12:54:58;;;;;;;1.85;1.20;;;;;;;;;;12903549;23;20750;-88
2023/09/13 13:00:11;;;;;;;2.10;1.42;;;;;;;;;;12875768;23;20027;-87
2023/09/13 13:05:16;;;;;;;1.35;1.17;;;;;;;;;;12874059;23;20461;-87
2023/09/13 13:10:22;;;;;;;2.13;1.80;;;;;;;;;;12876098;23;20022;-87
2023/09/13 13:15:32;;;;;;;2.55;1.10;;;;;;;;;;12872898;23;20108;-87
2023/09/13 13:20:37;;;;;;;2.30;1.40;;;;;;;;;;12877359;23;20020;-88
2023/09/13 13:25:46;;;;;;;2.00;1.40;;;;;;;;;;12880660;23;20021;-88
2023/09/13 13:30:56;;;;;;;3.85;2.00;;;;;;;;;;12877386;23;20028;-87
2023/09/13 13:36:07;;;;;;;3.28;1.67;;;;;;;;;;12875880;23;20076;-88
2023/09/13 13:41:12;;;;;;;1.88;1.50;;;;;;;;;;12837624;22;20024;-83
2023/09/13 13:46:16;;;;;;;1.20;1.10;;;;;;;;;;12815024;23;20024;-84
2023/09/13 13:51:26;;;;;;;2.28;1.52;;;;;;;;;;12857823;23;20055;-84
2023/09/13 13:56:31;;;;;;;2.45;1.30;;;;;;;;;;12825519;23;20550;-83
2023/09/13 14:01:36;;;;;;;1.60;1.20;;;;;;;;;;12814907;23;20028;-84
2023/09/13 14:06:44;;;;;;;2.23;1.20;;;;;;;;;;12814817;23;20028;-83
2023/09/13 14:11:48;;;;;;;3.13;1.60;;;;;;;;;;12815813;23;20024;-84
2023/09/13 14:16:53;;;;;;;1.20;1.10;;;;;;;;;;12814907;23;20051;-84
2023/09/13 14:21:58;;;;;;;1.70;1.50;;;;;;;;;;12816002;23;20024;-84
2023/09/13 14:27:01;;;;;;;2.40;1.75;;;;;;;;;;12815448;23;20063;-82
2023/09/13 14:32:09;;;;;;;2.97;2.08;;;;;;;;;;12816165;23;20029;-82
2023/09/13 14:37:14;;;;;;;1.57;1.47;;;;;;;;;;12813901;23;20099;-83
2023/09/13 14:42:17;;;;;;;1.10;1.00;;;;;;;;;;12816652;23;20062;-85
2023/09/13 14:47:22;;;;;;;1.52;1.33;;;;;;;;;;12814408;23;20536;-83
2023/09/13 14:52:28;;;;;;;2.33;1.60;;;;;;;;;;12815848;23;20104;-84
2023/09/13 14:57:32;;;;;;;1.25;1.13;;;;;;;;;;12851501;23;20259;-85
2023/09/13 15:02:37;;;;;;;2.05;1.58;;;;;;;;;;12813700;23;20397;-84
2023/09/13 15:07:42;;;;;;;1.73;1.42;;;;;;;;;;12839683;23;20031;-84
2023/09/13 15:12:47;;;;;;;1.00;0.90;;;;;;;;;;12851390;23;20024;-86
2023/09/13 15:17:53;;;;;;;1.40;1.03;;;;;;;;;;12807615;23;20055;-85
2023/09/13 15:22:58;;;;;;;1.20;0.80;;;;;;;;;;12814730;23;20040;-85
2023/09/13 15:28:02;;;;;;;1.00;0.87;;;;;;;;;;12813458;23;20047;-85
2023/09/13 15:33:06;;;;;;;1.42;0.95;;;;;;;;;;12811042;23;20052;-85
2023/09/13 15:38:11;;;;;;;1.00;0.68;;;;;;;;;;12810950;23;20091;-85
2023/09/13 15:43:15;;;;;;;1.58;1.00;;;;;;;;;;12846908;23;20505;-85
2023/09/13 15:48:19;;;;;;;1.83;1.15;;;;;;;;;;12812492;23;20055;-85
2023/09/13 15:53:24;;;;;;;2.63;1.20;;;;;;;;;;12839808;23;20036;-85
2023/09/13 15:58:27;;;;;;;2.35;1.10;;;;;;;;;;12812367;23;20044;-85
2023/09/13 16:03:30;;;;;;;1.55;1.00;;;;;;;;;;12813289;23;20083;-86
2023/09/13 16:08:35;;;;;;;1.95;1.75;;;;;;;;;;12811412;23;20029;-85
2023/09/13 16:13:38;;;;;;;1.42;1.33;;;;;;;;;;12838894;23;20028;-85
2023/09/13 16:18:42;;;;;;;1.42;1.23;;;;;;;;;;12837613;23;20029;-87
2023/09/13 16:23:47;;;;;;;3.10;2.10;;;;;;;;;;12812845;23;20240;-86
2023/09/13 16:28:50;;;;;;;1.50;1.40;;;;;;;;;;12808308;23;20529;-85
2023/09/13 16:33:55;;;;;;;1.60;1.50;;;;;;;;;;12805335;23;20340;-86
2023/09/13 16:39:00;;;;;;;1.30;1.20;;;;;;;;;;12804873;23;20025;-85
2023/09/13 16:44:04;;;;;;;1.73;1.20;;;;;;;;;;12826572;23;20523;-85
2023/09/13 16:49:08;;;;;;;1.80;1.52;;;;;;;;;;12835766;23;20025;-85
2023/09/13 16:54:13;;;;;;;3.55;1.35;;;;;;;;;;12813363;23;20029;-86
2023/09/13 16:59:16;;;;;;;1.48;1.10;;;;;;;;;;12840436;23;20107;-86
2023/09/13 17:04:19;;;;;;;0.73;0.73;;;;;;;;;;12814763;23;20028;-85
2023/09/13 17:09:24;;;;;;;1.20;0.88;;;;;;;;;;12813797;23;20036;-86
2023/09/13 17:14:28;;;;;;;0.80;0.73;;;;;;;;;;12842335;23;20067;-86
2023/09/13 17:19:31;;;;;;;0.70;0.70;;;;;;;;;;12816788;23;20248;-87
2023/09/13 17:24:36;;;;;;;0.98;0.88;;;;;;;;;;12844294;23;20079;-86
2023/09/13 17:29:42;;;;;;;0.90;0.90;;;;;;;;;;12817583;23;20815;-85
2023/09/13 17:34:46;;;;;;;0.80;0.80;;;;;;;;;;12847635;23;20557;-85
2023/09/13 17:39:51;;;;;;;1.50;1.00;;;;;;;;;;12844252;23;20496;-85
2023/09/13 17:44:55;;;;;;;1.35;0.90;;;;;;;;;;12820185;23;20477;-86
2023/09/13 17:49:59;;;;;;;1.10;0.90;;;;;;;;;;12845627;23;20357;-85
2023/09/13 17:55:05;;;;;;;2.45;0.90;;;;;;;;;;12846407;23;20021;-85
2023/09/13 18:00:09;;;;;;;1.00;0.90;;;;;;;;;;12818813;23;20025;-86
2023/09/13 18:05:12;;;;;;;0.80;0.80;;;;;;;;;;12818084;23;20025;-86
2023/09/13 18:10:17;;;;;;;1.17;1.08;;;;;;;;;;12844628;23;20562;-85
2023/09/13 18:15:21;;;;;;;2.10;1.00;;;;;;;;;;12844104;23;20594;-86
2023/09/13 18:20:26;;;;;;;0.80;0.80;;;;;;;;;;12821179;23;20029;-85
2023/09/13 18:25:32;;;;;;;0.90;0.80;;;;;;;;;;12819659;23;20036;-85
2023/09/13 18:30:37;;;;;;;;;;;;;;;;;;12865679;23;20024;-85
2023/09/13 18:35:40;;;;;;;1.05;0.95;;;;;;;;;;12819388;23;19951;-86
2023/09/13 18:40:45;;;;;;;0.80;0.80;;;;;;;;;;12818927;23;20020;-85
2023/09/13 18:45:58;;;;;;;0.85;0.85;;;;;;;;;;12802128;23;20020;-86
2023/09/13 18:51:03;;;;;;;0.95;0.88;;;;;;;;;;12845462;23;20021;-85
2023/09/13 18:56:13;;;;;;;0.93;0.82;;;;;;;;;;12846177;23;20024;-85
2023/09/13 19:01:40;;;;;;;1.10;0.95;;;;;;;;;;12820653;23;20028;-84
2023/09/13 19:06:46;;;;;;;1.15;1.00;;;;;;;;;;12860564;23;20109;-84
2023/09/13 19:11:56;;;;;;;1.20;1.10;;;;;;;;;;12860347;23;20036;-84
2023/09/13 19:16:59;;;;;;;1.00;0.90;;;;;;;;;;12849169;23;20028;-84
2023/09/13 19:22:03;;;;;;;2.88;1.10;;;;;;;;;;12847002;23;20021;-84
2023/09/13 19:27:07;;;;;;;0.98;0.93;;;;;;;;;;12820698;23;20024;-85
2023/09/13 19:32:11;;;;;;;0.80;0.75;;;;;;;;;;12822284;23;20465;-84
2023/09/13 19:37:14;;;;;;;0.80;0.77;;;;;;;;;;12849455;23;20032;-84
2023/09/13 19:42:19;;;;;;;1.80;0.90;;;;;;;;;;12849790;23;20370;-84
2023/09/13 19:47:22;;;;;;;0.82;0.82;;;;;;;;;;12826221;23;20394;-84
2023/09/13 19:52:26;;;;;;;1.83;0.93;;;;;;;;;;12855110;23;20012;-84
2023/09/13 19:57:30;;;;;;;1.48;1.17;;;;;;;;;;12818621;23;20408;-86
2023/09/13 20:02:35;;;;;;;2.70;0.82;;;;;;;;;;12814966;23;20414;-86
2023/09/13 20:07:38;;;;;;;2.15;1.00;;;;;;;;;;12816058;23;20030;-85
2023/09/13 20:12:44;;;;;;;1.23;1.00;;;;;;;;;;12846566;23;20024;-84
2023/09/13 20:17:47;;;;;;;2.55;0.88;;;;;;;;;;12812475;23;20040;-84
2023/09/13 20:22:50;;;;;;;1.35;0.88;;;;;;;;;;12848054;23;20020;-84
2023/09/13 20:27:56;;;;;;;1.73;1.02;;;;;;;;;;12858113;23;20060;-84
2023/09/13 20:32:59;;;;;;;0.77;0.77;;;;;;;;;;12821237;23;20024;-83
2023/09/13 20:38:03;;;;;;;0.80;0.80;;;;;;;;;;12816260;23;20505;-84
2023/09/13 20:43:08;;;;;;;0.85;0.77;;;;;;;;;;12850823;23;20072;-83
2023/09/13 20:48:11;;;;;;;2.03;1.15;;;;;;;;;;12847182;23;20028;-84
2023/09/13 20:53:14;;;;;;;0.77;0.60;;;;;;;;;;12815797;23;20024;-84
2023/09/13 20:58:19;;;;;;;1.27;0.68;;;;;;;;;;12843461;23;20025;-84
2023/09/13 21:03:22;;;;;;;1.13;0.65;;;;;;;;;;12819240;23;20124;-84
2023/09/13 21:08:26;;;;;;;0.93;0.50;;;;;;;;;;12845056;23;20028;-84
2023/09/13 21:13:30;;;;;;;1.10;0.50;;;;;;;;;;12819369;23;20028;-84
2023/09/13 21:18:33;;;;;;;0.65;0.40;;;;;;;;;;12821915;23;20028;-84
2023/09/13 21:23:37;;;;;;;1.20;0.52;;;;;;;;;;12847244;23;20020;-84
2023/09/13 21:28:44;;;;;;;0.98;0.50;;;;;;;;;;12854653;23;20561;-83
2023/09/13 21:33:48;;;;;;;0.82;0.55;;;;;;;;;;12846785;23;20048;-83
2023/09/13 21:38:51;;;;;;;1.23;0.68;;;;;;;;;;12847669;23;20083;-84
2023/09/13 21:43:56;;;;;;;1.13;0.60;;;;;;;;;;12821382;23;20025;-83
2023/09/13 21:48:59;;;;;;;0.85;0.50;;;;;;;;;;12846391;23;20028;-84
2023/09/13 21:54:03;;;;;;;0.47;0.40;;;;;;;;;;12846863;23;20638;-84
2023/09/13 21:59:07;;;;;;;0.95;0.52;;;;;;;;;;12819018;23;20055;-83
2023/09/13 22:04:11;;;;;;;0.57;0.35;;;;;;;;;;12819510;23;20056;-84
2023/09/13 22:09:14;;;;;;;0.85;0.60;;;;;;;;;;12849315;23;20028;-84
2023/09/13 22:14:19;;;;;;;0.73;0.60;;;;;;;;;;12850908;23;20027;-83
2023/09/13 22:19:23;;;;;;;0.50;0.50;;;;;;;;;;12818421;23;20029;-84
2023/09/13 22:24:27;;;;;;;1.17;0.40;;;;;;;;;;12820197;23;20012;-84
2023/09/13 22:29:33;;;;;;;1.48;0.95;;;;;;;;;;12818023;23;20029;-84
2023/09/13 22:34:36;;;;;;;0.90;0.70;;;;;;;;;;12818896;23;20017;-85
2023/09/13 22:39:40;;;;;;;1.08;0.63;;;;;;;;;;12844555;23;20075;-85
2023/09/13 22:44:45;;;;;;;2.25;0.77;;;;;;;;;;12820235;23;20027;-84
2023/09/13 22:49:48;;;;;;;1.02;0.70;;;;;;;;;;12819218;23;20083;-84
2023/09/13 22:54:52;;;;;;;1.58;0.68;;;;;;;;;;12819793;23;20016;-84
2023/09/13 22:59:57;;;;;;;1.33;0.88;;;;;;;;;;12844556;23;20043;-84
2023/09/13 23:05:01;;;;;;;1.10;0.60;;;;;;;;;;12817417;23;20072;-84
2023/09/13 23:10:04;;;;;;;2.17;0.70;;;;;;;;;;12814640;23;20338;-84
2023/09/13 23:15:09;;;;;;;0.98;0.60;;;;;;;;;;12814792;23;20017;-84
2023/09/13 23:20:14;;;;;;;2.78;0.70;;;;;;;;;;12813098;23;20646;-84
2023/09/13 23:25:17;;;;;;;1.77;0.90;;;;;;;;;;12841951;23;20021;-84
2023/09/13 23:30:22;;;;;;;0.70;0.50;;;;;;;;;;12816491;23;20028;-84
2023/09/13 23:35:28;;;;;;;3.40;0.75;;;;;;;;;;12815492;23;20915;-83
2023/09/13 23:40:33;;;;;;;0.80;0.60;;;;;;;;;;12815900;23;20051;-85
2023/09/13 23:45:37;;;;;;;0.70;0.60;;;;;;;;;;12814080;23;20043;-84
2023/09/13 23:50:41;;;;;;;0.55;0.50;;;;;;;;;;12860958;23;20107;-84
2023/09/13 23:55:44;;;;;;;2.05;0.70;;;;;;;;;;12814416;23;20025;-84
